createdAt,value
2017-09-23T00:00:52.023Z,1018.67
2017-09-23T00:02:01.645Z,1018.68
2017-09-23T00:03:10.947Z,1018.68
2017-09-23T00:04:19.931Z,1018.7
2017-09-23T00:05:29.463Z,1018.67
2017-09-23T00:06:38.449Z,1018.7
2017-09-23T00:07:47.126Z,1018.67
2017-09-23T00:08:56.406Z,1018.7
2017-09-23T00:10:05.713Z,1018.7
2017-09-23T00:11:15.008Z,1018.7
2017-09-23T00:12:23.998Z,1018.72
2017-09-23T00:13:32.972Z,1018.68
2017-09-23T00:14:41.941Z,1018.74
2017-09-23T00:15:50.908Z,1018.74
2017-09-23T00:17:00.196Z,1018.74
2017-09-23T00:18:09.184Z,1018.68
2017-09-23T00:19:18.171Z,1018.66
2017-09-23T00:20:27.135Z,1018.68
2017-09-23T00:21:36.430Z,1018.69
2017-09-23T00:22:45.510Z,1018.66
2017-09-23T00:23:54.172Z,1018.7
2017-09-23T00:25:03.463Z,1018.7
2017-09-23T00:26:12.476Z,1018.68
2017-09-23T00:27:21.447Z,1018.66
2017-09-23T00:28:30.110Z,1018.64
2017-09-23T00:29:39.076Z,1018.68
2017-09-23T00:30:47.736Z,1018.66
2017-09-23T00:31:56.701Z,1018.63
2017-09-23T00:33:05.986Z,1018.62
2017-09-23T00:34:15.348Z,1018.63
2017-09-23T00:35:24.637Z,1018.61
2017-09-23T00:36:33.933Z,1018.57
2017-09-23T00:37:42.576Z,1018.6
2017-09-23T00:38:51.571Z,1018.61
2017-09-23T00:40:00.541Z,1018.6
2017-09-23T00:41:10.225Z,1018.59
2017-09-23T00:42:18.886Z,1018.6
2017-09-23T00:43:27.541Z,1018.56
2017-09-23T00:44:36.514Z,1018.53
2017-09-23T00:45:46.405Z,1018.52
2017-09-23T00:46:55.379Z,1018.5
2017-09-23T00:48:04.039Z,1018.54
2017-09-23T00:49:13.639Z,1018.51
2017-09-23T00:50:22.612Z,1018.53
2017-09-23T00:51:31.415Z,1018.55
2017-09-23T00:52:40.082Z,1018.58
2017-09-23T00:53:49.358Z,1018.56
2017-09-23T00:54:58.657Z,1018.59
2017-09-23T00:56:07.340Z,1018.6
2017-09-23T00:57:16.460Z,1018.57
2017-09-23T00:58:25.124Z,1018.6
2017-09-23T00:59:34.104Z,1018.61
2017-09-23T01:00:43.076Z,1018.62
2017-09-23T01:01:51.733Z,1018.65
2017-09-23T01:03:00.378Z,1018.64
2017-09-23T01:04:09.367Z,1018.66
2017-09-23T01:05:18.338Z,1018.62
2017-09-23T01:06:27.551Z,1018.61
2017-09-23T01:07:36.204Z,1018.59
2017-09-23T01:08:45.481Z,1018.57
2017-09-23T01:09:54.151Z,1018.57
2017-09-23T01:11:03.439Z,1018.57
2017-09-23T01:12:12.410Z,1018.57
2017-09-23T01:13:21.685Z,1018.56
2017-09-23T01:14:30.649Z,1018.56
2017-09-23T01:15:39.938Z,1018.54
2017-09-23T01:16:49.227Z,1018.56
2017-09-23T01:17:58.196Z,1018.57
2017-09-23T01:19:06.858Z,1018.59
2017-09-23T01:20:15.975Z,1018.57
2017-09-23T01:21:25.259Z,1018.6
2017-09-23T01:22:34.560Z,1018.66
2017-09-23T01:23:43.541Z,1018.65
2017-09-23T01:24:52.202Z,1018.62
2017-09-23T01:26:00.856Z,1018.66
2017-09-23T01:27:10.136Z,1018.66
2017-09-23T01:28:19.104Z,1018.68
2017-09-23T01:29:28.096Z,1018.69
2017-09-23T01:30:37.069Z,1018.72
2017-09-23T01:31:46.153Z,1018.72
2017-09-23T01:32:54.818Z,1018.73
2017-09-23T01:34:04.097Z,1018.7
2017-09-23T01:35:13.082Z,1018.72
2017-09-23T01:36:22.379Z,1018.71
2017-09-23T01:37:31.666Z,1018.73
2017-09-23T01:38:40.957Z,1018.72
2017-09-23T01:39:49.629Z,1018.74
2017-09-23T01:40:58.926Z,1018.77
2017-09-23T01:42:07.927Z,1018.77
2017-09-23T01:43:17.207Z,1018.74
2017-09-23T01:44:26.171Z,1018.73
2017-09-23T01:45:35.456Z,1018.78
2017-09-23T01:46:44.434Z,1018.74
2017-09-23T01:47:53.097Z,1018.77
2017-09-23T01:49:02.744Z,1018.75
2017-09-23T01:50:12.682Z,1018.75
2017-09-23T01:51:21.963Z,1018.79
2017-09-23T01:52:30.933Z,1018.81
2017-09-23T01:53:40.234Z,1018.77
2017-09-23T01:54:49.210Z,1018.79
2017-09-23T01:55:58.173Z,1018.84
2017-09-23T01:57:07.462Z,1018.8
2017-09-23T01:58:16.756Z,1018.82
2017-09-23T01:59:25.732Z,1018.83
2017-09-23T02:00:35.803Z,1018.84
2017-09-23T02:01:44.785Z,1018.85
2017-09-23T02:02:53.449Z,1018.86
2017-09-23T02:04:02.419Z,1018.85
2017-09-23T02:05:11.392Z,1018.87
2017-09-23T02:06:20.204Z,1018.85
2017-09-23T02:07:29.162Z,1018.86
2017-09-23T02:08:38.212Z,1018.9
2017-09-23T02:09:46.863Z,1018.86
2017-09-23T02:10:55.837Z,1018.9
2017-09-23T02:12:05.436Z,1018.93
2017-09-23T02:13:14.089Z,1018.96
2017-09-23T02:14:23.055Z,1018.97
2017-09-23T02:15:32.051Z,1018.99
2017-09-23T02:16:40.721Z,1018.97
2017-09-23T02:17:49.374Z,1018.97
2017-09-23T02:18:58.667Z,1019.04
2017-09-23T02:20:07.335Z,1019.04
2017-09-23T02:21:16.300Z,1018.97
2017-09-23T02:22:25.624Z,1018.95
2017-09-23T02:23:35.520Z,1018.99
2017-09-23T02:24:44.179Z,1019.02
2017-09-23T02:25:52.827Z,1019.03
2017-09-23T02:27:02.157Z,1019.01
2017-09-23T02:28:11.141Z,1019.02
2017-09-23T02:29:20.266Z,1019.03
2017-09-23T02:30:28.952Z,1019.02
2017-09-23T02:31:37.925Z,1019.02
2017-09-23T02:32:46.581Z,1019.03
2017-09-23T02:33:55.555Z,1019.03
2017-09-23T02:35:04.856Z,1019.02
2017-09-23T02:36:13.838Z,1019.02
2017-09-23T02:37:22.807Z,1019
2017-09-23T02:38:31.793Z,1019.03
2017-09-23T02:39:40.772Z,1019.01
2017-09-23T02:40:50.689Z,1019.02
2017-09-23T02:41:59.998Z,1019.03
2017-09-23T02:43:09.606Z,1019
2017-09-23T02:44:18.893Z,1019.06
2017-09-23T02:45:28.195Z,1019.02
2017-09-23T02:46:37.481Z,1019.02
2017-09-23T02:47:46.778Z,1019.02
2017-09-23T02:48:55.447Z,1019.02
2017-09-23T02:50:05.054Z,1019.01
2017-09-23T02:51:14.034Z,1019.01
2017-09-23T02:52:22.990Z,1019.03
2017-09-23T02:53:31.657Z,1019.01
2017-09-23T02:54:40.281Z,1019.04
2017-09-23T02:55:49.253Z,1019
2017-09-23T02:56:58.852Z,1019
2017-09-23T02:58:08.132Z,1019.03
2017-09-23T02:59:17.097Z,1019.03
2017-09-23T03:00:25.747Z,1019.03
2017-09-23T03:01:34.735Z,1019.02
2017-09-23T03:02:43.387Z,1019.02
2017-09-23T03:03:52.683Z,1018.99
2017-09-23T03:05:01.658Z,1018.99
2017-09-23T03:06:11.280Z,1018.97
2017-09-23T03:07:19.931Z,1018.96
2017-09-23T03:08:28.602Z,1018.93
2017-09-23T03:09:38.364Z,1018.92
2017-09-23T03:10:47.320Z,1018.93
2017-09-23T03:11:56.617Z,1018.96
2017-09-23T03:13:05.595Z,1018.99
2017-09-23T03:14:14.565Z,1018.98
2017-09-23T03:15:24.143Z,1018.95
2017-09-23T03:16:33.777Z,1018.95
2017-09-23T03:17:42.431Z,1018.99
2017-09-23T03:18:51.077Z,1018.98
2017-09-23T03:20:00.048Z,1018.99
2017-09-23T03:21:09.642Z,1018.98
2017-09-23T03:22:18.335Z,1018.96
2017-09-23T03:23:27.623Z,1018.97
2017-09-23T03:24:37.234Z,1018.99
2017-09-23T03:25:46.209Z,1018.98
2017-09-23T03:26:54.969Z,1019.02
2017-09-23T03:28:04.577Z,1018.98
2017-09-23T03:29:13.857Z,1019.03
2017-09-23T03:30:22.569Z,1018.97
2017-09-23T03:31:32.171Z,1019
2017-09-23T03:32:41.461Z,1019.03
2017-09-23T03:33:50.445Z,1019.03
2017-09-23T03:34:59.419Z,1019.02
2017-09-23T03:36:09.012Z,1019.03
2017-09-23T03:37:18.316Z,1018.99
2017-09-23T03:38:27.912Z,1018.97
2017-09-23T03:39:36.900Z,1018.98
2017-09-23T03:40:45.612Z,1018.98
2017-09-23T03:41:54.592Z,1018.93
2017-09-23T03:43:03.246Z,1018.98
2017-09-23T03:44:12.392Z,1018.95
2017-09-23T03:45:21.042Z,1018.96
2017-09-23T03:46:29.703Z,1018.99
2017-09-23T03:47:38.395Z,1019
2017-09-23T03:48:47.680Z,1019
2017-09-23T03:49:56.810Z,1018.97
2017-09-23T03:51:06.098Z,1018.96
2017-09-23T03:52:14.768Z,1018.97
2017-09-23T03:53:23.434Z,1019
2017-09-23T03:54:32.765Z,1018.99
2017-09-23T03:55:42.472Z,1019.04
2017-09-23T03:56:51.770Z,1019
2017-09-23T03:58:01.073Z,1019.05
2017-09-23T03:59:09.727Z,1019.06
2017-09-23T04:00:19.029Z,1019.03
2017-09-23T04:01:28.646Z,1019
2017-09-23T04:02:38.253Z,1018.99
2017-09-23T04:03:47.241Z,1018.97
2017-09-23T04:04:56.844Z,1018.98
2017-09-23T04:06:05.814Z,1019.02
2017-09-23T04:07:14.887Z,1019
2017-09-23T04:08:23.862Z,1018.98
2017-09-23T04:09:33.146Z,1019.02
2017-09-23T04:10:42.739Z,1019.01
2017-09-23T04:11:51.725Z,1019
2017-09-23T04:13:01.176Z,1019.03
2017-09-23T04:14:09.837Z,1019.01
2017-09-23T04:15:18.811Z,1018.99
2017-09-23T04:16:27.781Z,1018.97
2017-09-23T04:17:36.774Z,1018.97
2017-09-23T04:18:46.088Z,1018.96
2017-09-23T04:19:55.381Z,1018.91
2017-09-23T04:21:04.040Z,1018.92
2017-09-23T04:22:13.021Z,1018.92
2017-09-23T04:23:22.002Z,1018.95
2017-09-23T04:24:31.467Z,1018.93
2017-09-23T04:25:40.428Z,1018.9
2017-09-23T04:26:49.419Z,1018.92
2017-09-23T04:27:58.071Z,1018.94
2017-09-23T04:29:07.676Z,1018.93
2017-09-23T04:30:16.759Z,1018.96
2017-09-23T04:31:25.747Z,1018.96
2017-09-23T04:32:34.724Z,1019
2017-09-23T04:33:43.692Z,1019.07
2017-09-23T04:34:52.979Z,1019.04
2017-09-23T04:36:02.692Z,1019.1
2017-09-23T04:37:11.690Z,1019.05
2017-09-23T04:38:20.352Z,1019.03
2017-09-23T04:39:29.664Z,1019.09
2017-09-23T04:40:38.357Z,1019.08
2017-09-23T04:41:47.348Z,1019.07
2017-09-23T04:42:56.331Z,1019.12
2017-09-23T04:44:05.616Z,1019.1
2017-09-23T04:45:14.263Z,1019.1
2017-09-23T04:46:23.244Z,1019.1
2017-09-23T04:47:32.522Z,1019.1
2017-09-23T04:48:41.495Z,1019.13
2017-09-23T04:49:50.793Z,1019.18
2017-09-23T04:50:59.766Z,1019.15
2017-09-23T04:52:09.047Z,1019.17
2017-09-23T04:53:19.117Z,1019.19
2017-09-23T04:54:27.790Z,1019.19
2017-09-23T04:55:36.468Z,1019.19
2017-09-23T04:56:45.465Z,1019.23
2017-09-23T04:57:54.531Z,1019.21
2017-09-23T04:59:03.519Z,1019.21
2017-09-23T05:00:12.517Z,1019.2
2017-09-23T05:01:21.501Z,1019.2
2017-09-23T05:02:30.167Z,1019.25
2017-09-23T05:03:39.152Z,1019.2
2017-09-23T05:04:48.787Z,1019.23
2017-09-23T05:05:58.094Z,1019.22
2017-09-23T05:07:07.778Z,1019.24
2017-09-23T05:08:16.449Z,1019.22
2017-09-23T05:09:50.804Z,1019.23
2017-09-23T05:11:00.403Z,1019.2
2017-09-23T05:12:09.704Z,1019.17
2017-09-23T05:13:19.012Z,1019.2
2017-09-23T05:14:27.982Z,1019.2
2017-09-23T05:15:36.812Z,1019.2
2017-09-23T05:16:45.473Z,1019.17
2017-09-23T05:17:54.776Z,1019.19
2017-09-23T05:19:04.407Z,1019.22
2017-09-23T05:20:13.072Z,1019.19
2017-09-23T05:21:22.519Z,1019.2
2017-09-23T05:22:31.253Z,1019.22
2017-09-23T05:23:40.224Z,1019.22
2017-09-23T05:24:49.574Z,1019.23
2017-09-23T05:25:59.179Z,1019.2
2017-09-23T05:27:08.451Z,1019.23
2017-09-23T05:28:17.443Z,1019.27
2017-09-23T05:29:26.426Z,1019.28
2017-09-23T05:30:35.772Z,1019.32
2017-09-23T05:31:44.752Z,1019.37
2017-09-23T05:32:53.877Z,1019.34
2017-09-23T05:34:02.548Z,1019.37
2017-09-23T05:35:11.839Z,1019.33
2017-09-23T05:36:21.440Z,1019.38
2017-09-23T05:37:30.097Z,1019.35
2017-09-23T05:38:39.714Z,1019.37
2017-09-23T05:39:49.018Z,1019.37
2017-09-23T05:40:58.310Z,1019.39
2017-09-23T05:42:07.621Z,1019.39
2017-09-23T05:43:16.343Z,1019.38
2017-09-23T05:44:25.316Z,1019.42
2017-09-23T05:45:34.590Z,1019.4
2017-09-23T05:46:43.887Z,1019.42
2017-09-23T05:47:52.548Z,1019.44
2017-09-23T05:49:02.461Z,1019.42
2017-09-23T05:50:11.420Z,1019.43
2017-09-23T05:51:20.403Z,1019.44
2017-09-23T05:52:29.704Z,1019.44
2017-09-23T05:53:38.688Z,1019.48
2017-09-23T05:54:47.998Z,1019.5
2017-09-23T05:55:57.291Z,1019.5
2017-09-23T05:57:06.925Z,1019.48
2017-09-23T05:58:15.911Z,1019.49
2017-09-23T05:59:25.215Z,1019.5
2017-09-23T06:00:34.184Z,1019.51
2017-09-23T06:01:43.640Z,1019.5
2017-09-23T06:02:52.935Z,1019.5
2017-09-23T06:04:02.550Z,1019.51
2017-09-23T06:05:11.911Z,1019.53
2017-09-23T06:06:20.572Z,1019.53
2017-09-23T06:07:29.868Z,1019.57
2017-09-23T06:08:38.843Z,1019.53
2017-09-23T06:09:47.825Z,1019.56
2017-09-23T06:10:56.811Z,1019.58
2017-09-23T06:12:05.490Z,1019.52
2017-09-23T06:13:14.605Z,1019.55
2017-09-23T06:14:23.913Z,1019.56
2017-09-23T06:15:32.896Z,1019.59
2017-09-23T06:16:42.210Z,1019.58
2017-09-23T06:17:50.865Z,1019.59
2017-09-23T06:18:59.876Z,1019.55
2017-09-23T06:20:09.175Z,1019.64
2017-09-23T06:21:17.838Z,1019.62
2017-09-23T06:22:26.834Z,1019.64
2017-09-23T06:23:36.121Z,1019.62
2017-09-23T06:24:45.020Z,1019.65
2017-09-23T06:25:53.996Z,1019.64
2017-09-23T06:27:03.296Z,1019.66
2017-09-23T06:28:12.278Z,1019.61
2017-09-23T06:29:20.936Z,1019.62
2017-09-23T06:30:29.702Z,1019.59
2017-09-23T06:31:38.446Z,1019.62
2017-09-23T06:32:47.470Z,1019.62
2017-09-23T06:33:56.163Z,1019.64
2017-09-23T06:35:05.466Z,1019.65
2017-09-23T06:36:14.564Z,1019.64
2017-09-23T06:37:23.544Z,1019.65
2017-09-23T06:38:32.524Z,1019.67
2017-09-23T06:39:41.189Z,1019.65
2017-09-23T06:40:50.181Z,1019.65
2017-09-23T06:41:59.467Z,1019.65
2017-09-23T06:43:08.758Z,1019.67
2017-09-23T06:44:18.053Z,1019.67
2017-09-23T06:45:27.346Z,1019.66
2017-09-23T06:46:36.328Z,1019.66
2017-09-23T06:47:45.312Z,1019.67
2017-09-23T06:48:54.332Z,1019.69
2017-09-23T06:50:03.629Z,1019.67
2017-09-23T06:51:12.646Z,1019.71
2017-09-23T06:52:21.625Z,1019.68
2017-09-23T06:53:31.028Z,1019.7
2017-09-23T06:54:40.331Z,1019.72
2017-09-23T06:55:49.944Z,1019.72
2017-09-23T06:56:59.250Z,1019.77
2017-09-23T06:58:08.265Z,1019.77
2017-09-23T06:59:17.416Z,1019.78
2017-09-23T07:00:26.408Z,1019.8
2017-09-23T07:01:35.715Z,1019.78
2017-09-23T07:02:44.703Z,1019.79
2017-09-23T07:03:53.683Z,1019.75
2017-09-23T07:05:02.349Z,1019.76
2017-09-23T07:06:11.688Z,1019.79
2017-09-23T07:07:20.358Z,1019.73
2017-09-23T07:08:29.643Z,1019.75
2017-09-23T07:09:39.257Z,1019.73
2017-09-23T07:10:48.648Z,1019.71
2017-09-23T07:11:57.357Z,1019.71
2017-09-23T07:13:06.991Z,1019.77
2017-09-23T07:14:15.958Z,1019.74
2017-09-23T07:15:24.928Z,1019.73
2017-09-23T07:16:33.890Z,1019.77
2017-09-23T07:17:42.871Z,1019.73
2017-09-23T07:18:51.543Z,1019.68
2017-09-23T07:20:00.206Z,1019.67
2017-09-23T07:21:08.892Z,1019.68
2017-09-23T07:22:18.189Z,1019.68
2017-09-23T07:23:27.165Z,1019.7
2017-09-23T07:24:36.455Z,1019.69
2017-09-23T07:25:45.429Z,1019.65
2017-09-23T07:26:54.558Z,1019.66
2017-09-23T07:28:03.227Z,1019.69
2017-09-23T07:29:11.884Z,1019.7
2017-09-23T07:30:20.547Z,1019.71
2017-09-23T07:31:29.511Z,1019.73
2017-09-23T07:32:39.126Z,1019.7
2017-09-23T07:33:49.043Z,1019.72
2017-09-23T07:34:58.326Z,1019.75
2017-09-23T07:36:07.325Z,1019.74
2017-09-23T07:37:16.000Z,1019.78
2017-09-23T07:38:25.772Z,1019.78
2017-09-23T07:39:34.795Z,1019.76
2017-09-23T07:40:44.088Z,1019.78
2017-09-23T07:41:52.771Z,1019.8
2017-09-23T07:43:02.688Z,1019.84
2017-09-23T07:44:11.969Z,1019.85
2017-09-23T07:45:20.640Z,1019.86
2017-09-23T07:46:29.687Z,1019.87
2017-09-23T07:47:38.683Z,1019.86
2017-09-23T07:48:47.991Z,1019.91
2017-09-23T07:49:57.468Z,1019.9
2017-09-23T07:51:06.429Z,1019.89
2017-09-23T07:52:15.751Z,1019.89
2017-09-23T07:53:24.424Z,1019.91
2017-09-23T07:54:33.723Z,1019.9
2017-09-23T07:55:43.028Z,1019.87
2017-09-23T07:56:52.017Z,1019.95
2017-09-23T07:58:01.315Z,1019.92
2017-09-23T07:59:10.309Z,1019.91
2017-09-23T08:00:19.908Z,1019.93
2017-09-23T08:01:29.594Z,1019.95
2017-09-23T08:02:38.599Z,1019.97
2017-09-23T08:03:47.258Z,1019.98
2017-09-23T08:04:56.322Z,1020.01
2017-09-23T08:06:05.331Z,1020.05
2017-09-23T08:07:14.414Z,1020.06
2017-09-23T08:08:23.421Z,1020.06
2017-09-23T08:09:32.122Z,1020.08
2017-09-23T08:10:41.450Z,1020.1
2017-09-23T08:11:50.447Z,1020.11
2017-09-23T08:12:59.743Z,1020.1
2017-09-23T08:14:08.399Z,1020.11
2017-09-23T08:15:17.693Z,1020.1
2017-09-23T08:16:26.433Z,1020.13
2017-09-23T08:17:35.407Z,1020.11
2017-09-23T08:18:44.237Z,1020.11
2017-09-23T08:19:53.900Z,1020.17
2017-09-23T08:21:02.927Z,1020.21
2017-09-23T08:22:12.216Z,1020.16
2017-09-23T08:23:21.178Z,1020.21
2017-09-23T08:24:29.937Z,1020.18
2017-09-23T08:25:38.593Z,1020.2
2017-09-23T08:26:47.959Z,1020.22
2017-09-23T08:27:56.618Z,1020.23
2017-09-23T08:29:05.276Z,1020.22
2017-09-23T08:30:14.071Z,1020.22
2017-09-23T08:31:22.771Z,1020.2
2017-09-23T08:32:32.108Z,1020.19
2017-09-23T08:33:41.393Z,1020.21
2017-09-23T08:34:50.671Z,1020.2
2017-09-23T08:35:59.643Z,1020.17
2017-09-23T08:37:08.942Z,1020.19
2017-09-23T08:38:18.235Z,1020.18
2017-09-23T08:39:27.532Z,1020.15
2017-09-23T08:40:37.120Z,1020.19
2017-09-23T08:41:46.411Z,1020.14
2017-09-23T08:42:55.133Z,1020.15
2017-09-23T08:44:04.768Z,1020.16
2017-09-23T08:45:13.748Z,1020.13
2017-09-23T08:46:22.413Z,1020.12
2017-09-23T08:47:31.380Z,1020.13
2017-09-23T08:48:40.681Z,1020.16
2017-09-23T08:49:49.332Z,1020.14
2017-09-23T08:50:58.611Z,1020.07
2017-09-23T08:52:07.603Z,1020.12
2017-09-23T08:53:16.569Z,1020.06
2017-09-23T08:54:25.846Z,1020.11
2017-09-23T08:55:34.842Z,1020.09
2017-09-23T08:56:44.175Z,1020.09
2017-09-23T08:57:53.341Z,1020.05
2017-09-23T08:59:03.284Z,1020.05
2017-09-23T09:00:11.960Z,1020.08
2017-09-23T09:01:20.927Z,1020.06
2017-09-23T09:02:29.892Z,1020.08
2017-09-23T09:03:38.854Z,1020.08
2017-09-23T09:04:48.259Z,1020.06
2017-09-23T09:05:56.922Z,1020.03
2017-09-23T09:07:06.562Z,1020.04
2017-09-23T09:08:15.852Z,1020.03
2017-09-23T09:09:24.812Z,1020.04
2017-09-23T09:10:33.793Z,1020.06
2017-09-23T09:11:43.088Z,1020.07
2017-09-23T09:12:52.079Z,1020.04
2017-09-23T09:14:01.431Z,1020.04
2017-09-23T09:15:10.104Z,1020.06
2017-09-23T09:16:19.908Z,1020.07
2017-09-23T09:17:29.028Z,1020.1
2017-09-23T09:18:38.070Z,1020.1
2017-09-23T09:19:47.282Z,1020.13
2017-09-23T09:20:57.306Z,1020.13
2017-09-23T09:22:07.469Z,1020.11
2017-09-23T09:23:16.439Z,1020.14
2017-09-23T09:24:25.790Z,1020.13
2017-09-23T09:25:34.439Z,1020.12
2017-09-23T09:26:44.372Z,1020.1
2017-09-23T09:27:53.867Z,1020.1
2017-09-23T09:29:02.529Z,1020.09
2017-09-23T09:30:11.859Z,1020.07
2017-09-23T09:31:20.556Z,1020.06
2017-09-23T09:32:29.861Z,1020.06
2017-09-23T09:33:39.442Z,1020.04
2017-09-23T09:34:49.044Z,1020
2017-09-23T09:35:58.319Z,1020
2017-09-23T09:37:07.603Z,1020.01
2017-09-23T09:38:16.916Z,1019.99
2017-09-23T09:39:26.383Z,1020.02
2017-09-23T09:40:35.087Z,1020.06
2017-09-23T09:41:44.071Z,1020.07
2017-09-23T09:42:53.382Z,1020.03
2017-09-23T09:44:02.356Z,1020.06
2017-09-23T09:45:11.623Z,1020.09
2017-09-23T09:46:20.595Z,1020.09
2017-09-23T09:47:29.582Z,1020.06
2017-09-23T09:48:38.878Z,1020.08
2017-09-23T09:49:47.858Z,1020.02
2017-09-23T09:50:56.842Z,1020.07
2017-09-23T09:52:05.819Z,1020.05
2017-09-23T09:53:15.420Z,1020.04
2017-09-23T09:54:24.724Z,1020.05
2017-09-23T09:55:33.685Z,1020.08
2017-09-23T09:56:42.828Z,1020.06
2017-09-23T09:57:52.125Z,1020.05
2017-09-23T09:59:01.439Z,1020.06
2017-09-23T10:00:10.091Z,1020.1
2017-09-23T10:01:19.693Z,1020.08
2017-09-23T10:02:28.839Z,1020.03
2017-09-23T10:03:38.132Z,1020.08
2017-09-23T10:04:47.415Z,1020.05
2017-09-23T10:05:56.380Z,1020.02
2017-09-23T10:07:05.032Z,1020.02
2017-09-23T10:08:14.308Z,1020.01
2017-09-23T10:09:23.289Z,1020
2017-09-23T10:10:32.584Z,1020.01
2017-09-23T10:11:41.880Z,1019.95
2017-09-23T10:12:50.845Z,1019.93
2017-09-23T10:13:59.815Z,1019.98
2017-09-23T10:15:08.775Z,1019.94
2017-09-23T10:16:17.418Z,1019.94
2017-09-23T10:17:26.398Z,1019.96
2017-09-23T10:18:35.432Z,1019.95
2017-09-23T10:19:44.118Z,1019.93
2017-09-23T10:20:52.778Z,1019.95
2017-09-23T10:22:02.386Z,1019.93
2017-09-23T10:23:11.380Z,1019.93
2017-09-23T10:24:20.368Z,1019.93
2017-09-23T10:25:29.361Z,1019.92
2017-09-23T10:26:38.033Z,1019.92
2017-09-23T10:27:47.943Z,1019.92
2017-09-23T10:28:57.531Z,1019.86
2017-09-23T10:30:06.510Z,1019.86
2017-09-23T10:31:15.941Z,1019.84
2017-09-23T10:32:24.922Z,1019.8
2017-09-23T10:33:33.562Z,1019.81
2017-09-23T10:34:42.875Z,1019.78
2017-09-23T10:35:51.904Z,1019.73
2017-09-23T10:37:01.036Z,1019.7
2017-09-23T10:38:09.698Z,1019.71
2017-09-23T10:39:19.330Z,1019.7
2017-09-23T10:40:28.297Z,1019.71
2017-09-23T10:41:37.284Z,1019.73
2017-09-23T10:42:47.218Z,1019.75
2017-09-23T10:43:55.878Z,1019.76
2017-09-23T10:45:05.803Z,1019.75
2017-09-23T10:46:15.411Z,1019.76
2017-09-23T10:47:24.099Z,1019.72
2017-09-23T10:48:33.062Z,1019.7
2017-09-23T10:49:42.036Z,1019.67
2017-09-23T10:50:50.990Z,1019.68
2017-09-23T10:52:00.274Z,1019.67
2017-09-23T10:53:09.244Z,1019.64
2017-09-23T10:54:18.054Z,1019.61
2017-09-23T10:55:27.976Z,1019.58
2017-09-23T10:56:37.269Z,1019.61
2017-09-23T10:57:45.937Z,1019.6
2017-09-23T10:58:55.234Z,1019.54
2017-09-23T11:00:04.521Z,1019.53
2017-09-23T11:01:13.874Z,1019.54
2017-09-23T11:02:22.865Z,1019.54
2017-09-23T11:03:31.518Z,1019.57
2017-09-23T11:04:40.178Z,1019.55
2017-09-23T11:05:49.153Z,1019.53
2017-09-23T11:06:58.121Z,1019.55
2017-09-23T11:08:07.393Z,1019.53
2017-09-23T11:09:16.056Z,1019.52
2017-09-23T11:10:25.150Z,1019.52
2017-09-23T11:11:34.114Z,1019.53
2017-09-23T11:12:43.105Z,1019.53
2017-09-23T11:13:52.115Z,1019.53
2017-09-23T11:15:01.091Z,1019.52
2017-09-23T11:16:10.371Z,1019.49
2017-09-23T11:17:19.491Z,1019.5
2017-09-23T11:18:28.462Z,1019.51
2017-09-23T11:19:37.426Z,1019.48
2017-09-23T11:20:46.078Z,1019.44
2017-09-23T11:21:54.729Z,1019.47
2017-09-23T11:23:03.858Z,1019.46
2017-09-23T11:24:12.837Z,1019.43
2017-09-23T11:25:22.111Z,1019.46
2017-09-23T11:26:31.083Z,1019.44
2017-09-23T11:27:40.054Z,1019.48
2017-09-23T11:28:49.314Z,1019.44
2017-09-23T11:29:58.279Z,1019.42
2017-09-23T11:31:07.884Z,1019.43
2017-09-23T11:32:17.497Z,1019.45
2017-09-23T11:33:26.785Z,1019.42
2017-09-23T11:34:36.081Z,1019.41
2017-09-23T11:35:45.364Z,1019.39
2017-09-23T11:36:54.031Z,1019.4
2017-09-23T11:38:02.685Z,1019.41
2017-09-23T11:39:11.993Z,1019.36
2017-09-23T11:40:21.002Z,1019.33
2017-09-23T11:41:30.275Z,1019.32
2017-09-23T11:42:38.942Z,1019.28
2017-09-23T11:43:47.592Z,1019.29
2017-09-23T11:44:57.261Z,1019.29
2017-09-23T11:46:06.684Z,1019.27
2017-09-23T11:47:16.914Z,1019.25
2017-09-23T11:48:26.522Z,1019.22
2017-09-23T11:49:35.516Z,1019.22
2017-09-23T11:50:44.509Z,1019.22
2017-09-23T11:51:53.953Z,1019.19
2017-09-23T11:53:03.581Z,1019.21
2017-09-23T11:54:12.897Z,1019.18
2017-09-23T11:55:21.559Z,1019.2
2017-09-23T11:56:30.554Z,1019.16
2017-09-23T11:57:39.401Z,1019.16
2017-09-23T11:58:48.683Z,1019.14
2017-09-23T11:59:58.273Z,1019.12
2017-09-23T12:01:06.943Z,1019.12
2017-09-23T12:02:15.935Z,1019.12
2017-09-23T12:03:25.705Z,1019.11
2017-09-23T12:04:34.669Z,1019.08
2017-09-23T12:05:44.270Z,1019.09
2017-09-23T12:06:53.270Z,1019.06
2017-09-23T12:08:02.268Z,1019.09
2017-09-23T12:09:11.244Z,1019.11
2017-09-23T12:10:20.216Z,1019.08
2017-09-23T12:11:28.951Z,1019.06
2017-09-23T12:12:37.938Z,1019.02
2017-09-23T12:13:47.245Z,1019
2017-09-23T12:14:57.016Z,1018.98
2017-09-23T12:16:06.020Z,1019.03
2017-09-23T12:17:15.627Z,1018.97
2017-09-23T12:18:24.600Z,1018.97
2017-09-23T12:19:34.525Z,1018.95
2017-09-23T12:20:43.690Z,1018.94
2017-09-23T12:21:52.965Z,1018.92
2017-09-23T12:23:02.263Z,1018.92
2017-09-23T12:24:11.225Z,1018.96
2017-09-23T12:25:19.884Z,1018.99
2017-09-23T12:26:29.325Z,1019
2017-09-23T12:27:38.281Z,1018.95
2017-09-23T12:28:47.576Z,1018.94
2017-09-23T12:29:56.548Z,1018.88
2017-09-23T12:31:05.209Z,1018.86
2017-09-23T12:32:14.182Z,1018.86
2017-09-23T12:33:23.154Z,1018.85
2017-09-23T12:34:32.156Z,1018.86
2017-09-23T12:35:40.807Z,1018.84
2017-09-23T12:36:50.413Z,1018.8
2017-09-23T12:37:59.755Z,1018.76
2017-09-23T12:39:08.737Z,1018.78
2017-09-23T12:40:18.434Z,1018.8
2017-09-23T12:41:28.119Z,1018.79
2017-09-23T12:42:36.780Z,1018.78
2017-09-23T12:43:45.471Z,1018.81
2017-09-23T12:44:54.778Z,1018.81
2017-09-23T12:46:03.447Z,1018.81
2017-09-23T12:47:12.420Z,1018.81
2017-09-23T12:48:22.044Z,1018.83
2017-09-23T12:49:31.205Z,1018.83
2017-09-23T12:50:39.885Z,1018.84
2017-09-23T12:51:49.538Z,1018.8
2017-09-23T12:52:58.835Z,1018.79
2017-09-23T12:54:07.483Z,1018.81
2017-09-23T12:55:16.510Z,1018.81
2017-09-23T12:56:26.796Z,1018.8
2017-09-23T12:57:35.797Z,1018.79
2017-09-23T12:58:45.402Z,1018.77
2017-09-23T12:59:54.386Z,1018.77
2017-09-23T13:01:03.697Z,1018.75
2017-09-23T13:02:13.002Z,1018.77
2017-09-23T13:03:22.302Z,1018.73
2017-09-23T13:04:30.968Z,1018.72
2017-09-23T13:05:39.950Z,1018.72
2017-09-23T13:06:48.788Z,1018.74
2017-09-23T13:07:58.074Z,1018.72
2017-09-23T13:09:07.060Z,1018.68
2017-09-23T13:10:16.032Z,1018.71
2017-09-23T13:11:24.992Z,1018.67
2017-09-23T13:12:33.983Z,1018.67
2017-09-23T13:13:43.637Z,1018.66
2017-09-23T13:14:52.721Z,1018.62
2017-09-23T13:16:02.017Z,1018.62
2017-09-23T13:17:10.801Z,1018.62
2017-09-23T13:18:19.944Z,1018.59
2017-09-23T13:19:28.922Z,1018.55
2017-09-23T13:20:37.905Z,1018.54
2017-09-23T13:21:47.193Z,1018.56
2017-09-23T13:22:55.865Z,1018.55
2017-09-23T13:24:04.978Z,1018.54
2017-09-23T13:25:13.977Z,1018.55
2017-09-23T13:26:23.025Z,1018.57
2017-09-23T13:27:32.297Z,1018.55
2017-09-23T13:28:41.318Z,1018.57
2017-09-23T13:29:50.740Z,1018.5
2017-09-23T13:31:00.076Z,1018.54
2017-09-23T13:32:09.036Z,1018.55
2017-09-23T13:33:17.697Z,1018.52
2017-09-23T13:34:26.662Z,1018.53
2017-09-23T13:35:35.316Z,1018.56
2017-09-23T13:36:43.976Z,1018.52
2017-09-23T13:37:52.944Z,1018.5
2017-09-23T13:39:01.940Z,1018.51
2017-09-23T13:40:10.898Z,1018.47
2017-09-23T13:41:20.555Z,1018.44
2017-09-23T13:42:29.199Z,1018.46
2017-09-23T13:43:38.181Z,1018.39
2017-09-23T13:44:46.842Z,1018.42
2017-09-23T13:45:55.821Z,1018.41
2017-09-23T13:47:05.083Z,1018.33
2017-09-23T13:48:14.058Z,1018.32
2017-09-23T13:49:23.140Z,1018.34
2017-09-23T13:50:32.416Z,1018.36
2017-09-23T13:51:41.088Z,1018.32
2017-09-23T13:52:50.360Z,1018.31
2017-09-23T13:53:59.329Z,1018.34
2017-09-23T13:55:08.610Z,1018.3
2017-09-23T13:56:17.303Z,1018.34
2017-09-23T13:57:26.283Z,1018.29
2017-09-23T13:58:35.403Z,1018.29
2017-09-23T13:59:44.373Z,1018.27
2017-09-23T14:00:53.696Z,1018.3